createdAt,value
2017-12-02T11:31:12.213Z,807.94
2017-12-02T11:32:12.217Z,807.86
2017-12-02T11:33:12.224Z,807.85
2017-12-02T11:34:12.224Z,807.84
2017-12-02T11:35:12.229Z,807.79
2017-12-02T11:36:12.230Z,807.83
2017-12-02T11:37:12.233Z,807.83
2017-12-02T11:38:12.233Z,807.83
2017-12-02T11:39:12.236Z,807.83
2017-12-02T11:40:12.240Z,807.81
2017-12-02T11:41:12.243Z,807.76
2017-12-02T11:42:12.243Z,807.75
2017-12-02T11:43:12.246Z,807.76
2017-12-02T11:44:12.247Z,807.81
2017-12-02T11:45:12.249Z,807.97
2017-12-02T11:46:12.250Z,807.88
2017-12-02T11:47:12.256Z,807.85
2017-12-02T11:48:12.260Z,807.86
2017-12-02T11:49:12.262Z,807.84
2017-12-02T11:50:12.263Z,807.85
2017-12-02T11:51:12.266Z,807.87
2017-12-02T11:52:12.273Z,807.89
2017-12-02T11:53:12.277Z,807.84
2017-12-02T11:54:12.280Z,807.83
2017-12-02T11:55:12.288Z,807.87
2017-12-02T11:56:12.292Z,807.87
2017-12-02T11:57:12.296Z,807.89
2017-12-02T11:58:12.298Z,807.91
2017-12-02T11:59:12.304Z,807.94
2017-12-02T12:00:12.309Z,807.94
2017-12-02T12:01:12.321Z,807.93
2017-12-02T12:02:12.319Z,807.92
2017-12-02T12:03:12.328Z,807.93
2017-12-02T12:04:12.334Z,807.94
2017-12-02T12:05:12.339Z,807.92
2017-12-02T12:06:12.345Z,807.95
2017-12-02T12:07:12.352Z,807.96
2017-12-02T12:08:42.674Z,807.98
2017-12-02T12:09:42.680Z,808.03
2017-12-02T12:10:42.686Z,808.00
2017-12-02T12:11:42.692Z,808.04
2017-12-02T12:12:42.702Z,808.02
2017-12-02T12:13:42.708Z,808.00
2017-12-02T12:14:42.715Z,807.99
2017-12-02T12:15:42.720Z,807.99
2017-12-02T12:16:42.729Z,807.99
2017-12-02T12:17:42.736Z,808.00
2017-12-02T12:18:42.742Z,807.98
2017-12-02T12:19:42.749Z,807.97
2017-12-02T12:20:42.756Z,808.00
2017-12-02T12:21:42.771Z,808.00
2017-12-02T12:22:42.771Z,808.03
2017-12-02T12:23:42.779Z,808.06
2017-12-02T12:24:42.813Z,808.01
2017-12-02T12:25:42.797Z,808.02
2017-12-02T12:26:42.803Z,808.00
2017-12-02T12:27:42.818Z,808.04
2017-12-02T12:28:42.818Z,808.00
2017-12-02T12:29:42.828Z,808.03
2017-12-02T12:30:42.835Z,808.05
2017-12-02T12:31:42.844Z,808.01
2017-12-02T12:32:42.853Z,808.06
2017-12-02T12:33:42.862Z,808.09
2017-12-02T12:34:42.871Z,808.07
2017-12-02T12:35:42.878Z,808.08
2017-12-02T12:36:42.933Z,808.09
2017-12-02T12:37:42.896Z,808.07
2017-12-02T12:38:42.904Z,808.08
2017-12-02T12:39:42.912Z,808.08
2017-12-02T12:40:42.927Z,808.08
2017-12-02T12:41:42.934Z,808.11
2017-12-02T12:42:42.941Z,808.06
2017-12-02T12:43:42.949Z,808.12
2017-12-02T12:44:42.958Z,808.09
2017-12-02T12:45:42.968Z,808.11
2017-12-02T12:46:42.983Z,808.14
2017-12-02T12:47:42.985Z,808.14
2017-12-02T12:48:42.997Z,808.16
2017-12-02T12:49:43.003Z,808.14
2017-12-02T12:50:43.014Z,808.15
2017-12-02T12:51:43.022Z,808.15
2017-12-02T12:52:43.031Z,808.14
2017-12-02T12:53:43.042Z,808.15
2017-12-02T12:54:43.051Z,808.15
2017-12-02T12:55:43.061Z,808.18
2017-12-02T12:56:43.070Z,808.19
2017-12-02T12:57:43.078Z,808.17
2017-12-02T12:58:43.086Z,808.15
2017-12-02T12:59:43.098Z,808.19
2017-12-02T13:00:43.109Z,808.17
2017-12-02T13:01:43.116Z,808.11
2017-12-02T13:02:43.130Z,808.14
2017-12-02T13:03:43.135Z,808.11
2017-12-02T13:04:43.145Z,808.16
2017-12-02T13:05:43.155Z,808.12
2017-12-02T13:06:43.164Z,808.14
2017-12-02T13:07:43.176Z,808.09
2017-12-02T13:08:43.185Z,808.14
2017-12-02T13:09:43.194Z,808.17
2017-12-02T13:10:43.201Z,808.17
2017-12-02T13:11:43.214Z,808.14
2017-12-02T13:12:43.221Z,808.19
2017-12-02T13:13:43.234Z,808.19
2017-12-02T13:14:43.244Z,808.14
2017-12-02T13:15:43.253Z,808.22
2017-12-02T13:16:43.264Z,808.23
2017-12-02T13:17:43.273Z,808.18
2017-12-02T13:18:43.287Z,808.19
2017-12-02T13:19:43.294Z,808.13
2017-12-02T13:20:43.304Z,808.15
2017-12-02T13:21:43.315Z,808.16
2017-12-02T13:22:43.327Z,808.14
2017-12-02T13:23:43.335Z,808.18
2017-12-02T13:24:43.349Z,808.20
2017-12-02T13:25:43.358Z,808.20
2017-12-02T13:26:43.367Z,808.18
2017-12-02T13:27:43.380Z,808.21
2017-12-02T13:28:43.392Z,808.21
2017-12-02T13:29:43.399Z,808.23
2017-12-02T13:30:43.416Z,808.26
2017-12-02T13:31:43.422Z,808.25
2017-12-02T13:32:43.436Z,808.25
2017-12-02T13:33:43.440Z,808.28
2017-12-02T13:34:43.459Z,808.29
2017-12-02T13:35:43.464Z,808.30
2017-12-02T13:36:43.483Z,808.20
2017-12-02T13:37:43.484Z,808.25
2017-12-02T13:38:43.496Z,808.22
2017-12-02T13:39:43.507Z,808.21
2017-12-02T13:40:43.520Z,808.26
2017-12-02T13:41:43.532Z,808.25
2017-12-02T13:42:43.539Z,808.26
2017-12-02T13:43:43.559Z,808.23
2017-12-02T13:44:43.571Z,808.28
2017-12-02T13:45:43.575Z,808.30
2017-12-02T13:46:43.591Z,808.32
2017-12-02T13:47:43.603Z,808.28
2017-12-02T13:48:43.613Z,808.29
2017-12-02T13:49:43.626Z,808.34
2017-12-02T13:50:43.630Z,808.33
2017-12-02T13:51:43.650Z,808.32
2017-12-02T13:52:43.659Z,808.23
2017-12-02T13:53:43.666Z,808.26
2017-12-02T13:54:43.677Z,808.24
2017-12-02T13:55:43.688Z,808.30
2017-12-02T13:56:43.700Z,808.35
2017-12-02T13:57:43.709Z,808.35
2017-12-02T13:58:43.719Z,808.37
2017-12-02T13:59:43.733Z,808.30
2017-12-02T14:00:43.741Z,808.35
2017-12-02T14:01:43.752Z,808.36
2017-12-02T14:02:43.761Z,808.40
2017-12-02T14:03:43.774Z,808.45
2017-12-02T14:04:43.784Z,808.44
2017-12-02T14:05:43.794Z,808.46
2017-12-02T14:06:43.803Z,808.41
2017-12-02T14:07:43.813Z,808.42
2017-12-02T14:08:43.825Z,808.45
2017-12-02T14:09:43.833Z,808.45
2017-12-02T14:10:43.844Z,808.45
2017-12-02T14:11:43.858Z,808.49
2017-12-02T14:12:43.866Z,808.46
2017-12-02T14:13:43.877Z,808.47
2017-12-02T14:14:43.883Z,808.44
2017-12-02T14:15:43.892Z,808.47
2017-12-02T14:16:43.904Z,808.47
2017-12-02T14:17:43.912Z,808.49
2017-12-02T14:18:43.923Z,808.50
2017-12-02T14:19:43.942Z,808.51
2017-12-02T14:20:43.940Z,808.49
2017-12-02T14:21:43.951Z,808.52
2017-12-02T14:22:43.958Z,808.52
2017-12-02T14:23:43.976Z,808.51
2017-12-02T14:24:44.037Z,808.51
2017-12-02T14:25:43.989Z,808.55
2017-12-02T14:26:43.999Z,808.51
2017-12-02T14:27:44.009Z,808.53
2017-12-02T14:28:44.017Z,808.52
2017-12-02T14:29:44.026Z,808.54
2017-12-02T14:30:44.040Z,808.57
2017-12-02T14:31:44.044Z,808.58
2017-12-02T14:32:44.054Z,808.56
2017-12-02T14:33:44.061Z,808.59
2017-12-02T14:34:44.071Z,808.60
2017-12-02T14:35:44.086Z,808.66
2017-12-02T14:36:44.088Z,808.62
2017-12-02T14:37:44.106Z,808.64
2017-12-02T14:38:44.106Z,808.64
2017-12-02T14:39:44.115Z,808.64
2017-12-02T14:40:44.137Z,808.62
2017-12-02T14:41:44.137Z,808.68
2017-12-02T14:42:44.143Z,808.66
2017-12-02T14:43:44.175Z,808.68
2017-12-02T14:44:44.164Z,808.68
2017-12-02T14:45:44.170Z,808.71
2017-12-02T14:46:44.180Z,808.71
2017-12-02T14:47:44.186Z,808.74
2017-12-02T14:48:44.202Z,808.73
2017-12-02T14:49:44.203Z,808.76
2017-12-02T14:50:44.211Z,808.76
2017-12-02T14:51:44.220Z,808.73
2017-12-02T14:52:44.228Z,808.75
2017-12-02T14:53:44.237Z,808.76
2017-12-02T14:54:44.243Z,808.75
2017-12-02T14:55:44.261Z,808.75
2017-12-02T14:56:44.267Z,808.77
2017-12-02T14:57:44.271Z,808.81
2017-12-02T14:58:44.277Z,808.79
2017-12-02T14:59:44.292Z,808.84
2017-12-02T15:00:44.295Z,808.80
2017-12-02T15:01:44.302Z,808.78
2017-12-02T15:02:44.312Z,808.75
2017-12-02T15:03:44.325Z,808.72
2017-12-02T15:04:44.328Z,808.70
2017-12-02T15:05:44.340Z,808.75
2017-12-02T15:06:44.343Z,808.72
2017-12-02T15:07:44.351Z,808.70
2017-12-02T15:08:44.359Z,808.74
2017-12-02T15:09:44.367Z,808.73
2017-12-02T15:10:44.373Z,808.77
2017-12-02T15:11:44.382Z,808.79
2017-12-02T15:12:44.388Z,808.81
2017-12-02T15:13:44.394Z,808.82
2017-12-02T15:14:44.410Z,808.78
2017-12-02T15:15:44.450Z,808.78
2017-12-02T15:16:44.415Z,808.82
2017-12-02T15:17:44.425Z,808.87
2017-12-02T15:18:44.430Z,808.89
2017-12-02T15:19:44.437Z,808.90
2017-12-02T15:20:44.444Z,808.86
2017-12-02T15:21:44.450Z,808.88
2017-12-02T15:22:44.457Z,808.89
2017-12-02T15:23:44.472Z,808.92
2017-12-02T15:24:44.470Z,808.95
2017-12-02T15:25:44.478Z,808.97
2017-12-02T15:26:44.490Z,808.98
2017-12-02T15:27:44.491Z,808.99
2017-12-02T15:28:44.503Z,808.97
2017-12-02T15:29:44.507Z,808.98
2017-12-02T15:30:44.511Z,808.97
2017-12-02T15:31:44.517Z,809.00
2017-12-02T15:32:44.529Z,809.01
2017-12-02T15:33:44.532Z,808.97
2017-12-02T15:34:44.545Z,809.00
2017-12-02T15:35:44.545Z,809.01
2017-12-02T15:36:44.552Z,809.01
2017-12-02T15:37:44.591Z,809.01
2017-12-02T15:38:44.566Z,808.99
2017-12-02T15:39:44.579Z,809.02
2017-12-02T15:40:44.579Z,809.02
2017-12-02T15:41:44.586Z,809.04
2017-12-02T15:42:44.591Z,809.04
2017-12-02T15:43:44.599Z,809.04
2017-12-02T15:44:44.605Z,809.03
2017-12-02T15:45:44.612Z,809.04
2017-12-02T15:46:44.622Z,809.03
2017-12-02T15:47:44.623Z,809.06
2017-12-02T15:48:44.634Z,809.07
2017-12-02T15:49:44.638Z,809.08
2017-12-02T15:50:44.643Z,809.09
2017-12-02T15:51:44.656Z,809.08
2017-12-02T15:52:44.658Z,809.11
2017-12-02T15:53:44.669Z,809.10
2017-12-02T15:54:44.677Z,809.06
2017-12-02T15:55:44.678Z,809.09
2017-12-02T15:56:44.691Z,809.09
2017-12-02T15:57:44.702Z,809.09
2017-12-02T15:58:44.701Z,809.10
2017-12-02T15:59:44.700Z,809.11
2017-12-02T16:00:44.711Z,809.07
2017-12-02T16:01:44.718Z,809.04
2017-12-02T16:02:44.727Z,809.09
2017-12-02T16:03:44.730Z,809.13
2017-12-02T16:04:44.739Z,809.10
2017-12-02T16:05:44.742Z,809.17
2017-12-02T16:06:44.750Z,809.16
2017-12-02T16:07:44.750Z,809.15
2017-12-02T16:08:44.757Z,809.14
2017-12-02T16:09:44.770Z,809.21
2017-12-02T16:10:44.768Z,809.18
2017-12-02T16:11:44.776Z,809.18
2017-12-02T16:12:44.779Z,809.19
2017-12-02T16:13:44.789Z,809.17
2017-12-02T16:14:44.799Z,809.19
2017-12-02T16:15:44.797Z,809.19
2017-12-02T16:16:44.804Z,809.18
2017-12-02T16:17:44.809Z,809.17
2017-12-02T16:18:44.822Z,809.20
2017-12-02T16:19:44.823Z,809.20
2017-12-02T16:20:44.827Z,809.22
2017-12-02T16:21:44.833Z,809.27
2017-12-02T16:22:44.844Z,809.23
2017-12-02T16:23:44.846Z,809.27
2017-12-02T16:24:44.850Z,809.29
2017-12-02T16:25:44.863Z,809.27
2017-12-02T16:26:44.865Z,809.32
2017-12-02T16:27:44.866Z,809.33
2017-12-02T16:28:44.871Z,809.29
2017-12-02T16:29:44.884Z,809.30
2017-12-02T16:30:44.883Z,809.33
2017-12-02T16:31:44.945Z,809.37
2017-12-02T16:32:44.895Z,809.37
2017-12-02T16:33:44.903Z,809.38
2017-12-02T16:34:44.904Z,809.43
2017-12-02T16:35:44.908Z,809.41
2017-12-02T16:36:44.915Z,809.44
2017-12-02T16:37:44.921Z,809.43
2017-12-02T16:38:44.923Z,809.41
2017-12-02T16:39:44.941Z,809.40
2017-12-02T16:40:44.945Z,809.36
2017-12-02T16:41:44.946Z,809.40
2017-12-02T16:42:44.952Z,809.43
2017-12-02T16:43:44.962Z,809.40
2017-12-02T16:44:44.953Z,809.40
2017-12-02T16:45:44.970Z,809.41
2017-12-02T16:46:44.977Z,809.41
2017-12-02T16:47:44.981Z,809.42
2017-12-02T16:48:44.980Z,809.43
2017-12-02T16:49:44.983Z,809.42
2017-12-02T16:50:44.997Z,809.44
2017-12-02T16:51:44.992Z,809.41
2017-12-02T16:52:45.006Z,809.41
2017-12-02T16:53:44.998Z,809.44
2017-12-02T16:54:45.007Z,809.46
2017-12-02T16:55:45.007Z,809.47
2017-12-02T16:56:45.021Z,809.46
2017-12-02T16:57:45.023Z,809.47
2017-12-02T16:58:45.030Z,809.49
2017-12-02T16:59:45.038Z,809.50
2017-12-02T17:00:45.038Z,809.50
2017-12-02T17:01:45.034Z,809.54
2017-12-02T17:02:45.051Z,809.54
2017-12-02T17:03:45.058Z,809.56
2017-12-02T17:04:45.056Z,809.53
2017-12-02T17:05:45.054Z,809.56
2017-12-02T17:06:45.069Z,809.55
2017-12-02T17:07:45.122Z,809.61
2017-12-02T17:08:45.066Z,809.59
2017-12-02T17:09:45.078Z,809.60
2017-12-02T17:10:45.086Z,809.60
2017-12-02T17:11:45.082Z,809.61
2017-12-02T17:12:45.093Z,809.60
2017-12-02T17:13:45.096Z,809.61
2017-12-02T17:14:45.108Z,809.64
2017-12-02T17:15:45.097Z,809.65
2017-12-02T17:16:45.101Z,809.64
2017-12-02T17:17:45.131Z,809.68
2017-12-02T17:18:45.122Z,809.67
2017-12-02T17:19:45.129Z,809.69
2017-12-02T17:20:45.118Z,809.66
2017-12-02T17:21:45.121Z,809.69
2017-12-02T17:22:45.141Z,809.69
2017-12-02T17:23:45.131Z,809.67
2017-12-02T17:24:45.147Z,809.70
2017-12-02T17:25:45.139Z,809.74
2017-12-02T17:26:45.144Z,809.76
2017-12-02T17:27:45.147Z,809.73
2017-12-02T17:28:45.153Z,809.76
2017-12-02T17:29:45.168Z,809.75
2017-12-02T17:30:45.161Z,809.75
2017-12-02T17:31:45.168Z,809.74
2017-12-02T17:32:45.165Z,809.76
2017-12-02T17:33:45.174Z,809.72
2017-12-02T17:34:45.177Z,809.75
2017-12-02T17:35:45.191Z,809.79
2017-12-02T17:36:45.184Z,809.77
2017-12-02T17:37:45.201Z,809.79
2017-12-02T17:38:45.192Z,809.78
2017-12-02T17:39:45.196Z,809.79
2017-12-02T17:40:45.201Z,809.81
2017-12-02T17:41:45.213Z,809.79
2017-12-02T17:42:45.209Z,809.81
2017-12-02T17:43:45.226Z,809.82
2017-12-02T17:44:45.218Z,809.82
2017-12-02T17:45:45.222Z,809.86
2017-12-02T17:46:45.234Z,809.86
2017-12-02T17:47:45.229Z,809.87
2017-12-02T17:48:45.231Z,809.91
2017-12-02T17:49:45.237Z,809.88
2017-12-02T17:50:45.239Z,809.91
2017-12-02T17:51:45.245Z,809.84
2017-12-02T17:52:45.254Z,809.89
2017-12-02T17:53:45.251Z,809.89
2017-12-02T17:54:45.261Z,809.89
2017-12-02T17:55:45.258Z,809.88
2017-12-02T17:56:45.262Z,809.91
2017-12-02T17:57:45.266Z,809.92
2017-12-02T17:58:45.269Z,809.89
2017-12-02T17:59:45.284Z,809.90
2017-12-02T18:00:45.276Z,809.91
2017-12-02T18:01:45.287Z,809.94
2017-12-02T18:02:45.283Z,809.97
2017-12-02T18:03:45.301Z,810.00
2017-12-02T18:04:45.299Z,809.99
2017-12-02T18:05:45.297Z,810.02
2017-12-02T18:06:45.307Z,810.01
2017-12-02T18:07:45.304Z,810.01
2017-12-02T18:08:45.306Z,810.01
2017-12-02T18:09:45.309Z,810.01
2017-12-02T18:10:45.318Z,809.99
2017-12-02T18:11:45.325Z,809.99
2017-12-02T18:12:45.321Z,810.02
2017-12-02T18:13:45.328Z,810.03
2017-12-02T18:14:45.332Z,809.99
2017-12-02T18:15:45.344Z,810.03
2017-12-02T18:16:45.335Z,810.04
2017-12-02T18:17:45.341Z,810.05
2017-12-02T18:18:45.399Z,810.06
2017-12-02T18:19:45.349Z,810.04
2017-12-02T18:20:45.360Z,810.08
2017-12-02T18:21:45.369Z,810.04
2017-12-02T18:22:45.361Z,810.08
2017-12-02T18:23:45.360Z,810.08
2017-12-02T18:24:45.363Z,810.09
2017-12-02T18:25:45.370Z,810.09
2017-12-02T18:26:45.377Z,810.13
2017-12-02T18:27:45.375Z,810.12
2017-12-02T18:28:45.407Z,810.12
2017-12-02T18:29:45.385Z,810.12
2017-12-02T18:30:45.385Z,810.14
2017-12-02T18:31:45.402Z,810.14
2017-12-02T18:32:45.403Z,810.15
2017-12-02T18:33:45.398Z,810.15
2017-12-02T18:34:45.398Z,810.16
2017-12-02T18:35:45.415Z,810.18
2017-12-02T18:36:45.406Z,810.18
2017-12-02T18:37:45.410Z,810.16
2017-12-02T18:38:45.412Z,810.15
2017-12-02T18:39:45.415Z,810.15
2017-12-02T18:40:45.435Z,810.15
2017-12-02T18:41:45.436Z,810.14
2017-12-02T18:42:45.428Z,810.15
2017-12-02T18:43:45.430Z,810.19
2017-12-02T18:44:45.445Z,810.16
2017-12-02T18:45:45.437Z,810.17
2017-12-02T18:46:45.453Z,810.18
2017-12-02T18:47:45.458Z,810.18
2017-12-02T18:48:45.446Z,810.15
2017-12-02T18:49:45.452Z,810.18
2017-12-02T18:50:45.467Z,810.18
2017-12-02T18:51:45.457Z,810.17
2017-12-02T18:52:45.474Z,810.18
2017-12-02T18:53:45.464Z,810.17
2017-12-02T18:54:45.478Z,810.15
2017-12-02T18:55:45.469Z,810.15
2017-12-02T18:56:45.525Z,810.19
2017-12-02T18:57:45.488Z,810.14
2017-12-02T18:58:45.492Z,810.19
2017-12-02T18:59:45.491Z,810.19
2017-12-02T19:00:45.499Z,810.19
2017-12-02T19:01:45.489Z,810.22
2017-12-02T19:02:45.505Z,810.24
2017-12-02T19:03:45.509Z,810.21
2017-12-02T19:04:45.503Z,810.21
2017-12-02T19:05:45.506Z,810.23
2017-12-02T19:06:45.508Z,810.26
2017-12-02T19:07:45.509Z,810.27
2017-12-02T19:08:45.511Z,810.27
2017-12-02T19:09:45.522Z,810.29
2017-12-02T19:10:45.525Z,810.31
2017-12-02T19:11:45.521Z,810.26
2017-12-02T19:12:45.537Z,810.28
2017-12-02T19:13:45.526Z,810.28
2017-12-02T19:14:45.541Z,810.28
2017-12-02T19:15:45.534Z,810.31
2017-12-02T19:16:45.539Z,810.30
2017-12-02T19:17:45.541Z,810.34
2017-12-02T19:18:45.553Z,810.35
2017-12-02T19:19:45.545Z,810.32
2017-12-02T19:20:45.549Z,810.35
2017-12-02T19:21:45.552Z,810.36
2017-12-02T19:22:45.565Z,810.32
2017-12-02T19:23:45.556Z,810.38
2017-12-02T19:24:45.561Z,810.35
2017-12-02T19:25:45.564Z,810.32
2017-12-02T19:26:45.629Z,810.35
2017-12-02T19:27:45.575Z,810.39
2017-12-02T19:28:45.573Z,810.38
2017-12-02T19:29:45.576Z,810.39
2017-12-02T19:30:45.595Z,810.38
2017-12-02T19:31:45.578Z,810.39
2017-12-02T19:32:45.583Z,810.37
2017-12-02T19:33:45.600Z,810.39
2017-12-02T19:34:45.596Z,810.36
2017-12-02T19:35:45.591Z,810.39
2017-12-02T19:36:45.595Z,810.38
2017-12-02T19:37:45.610Z,810.41
2017-12-02T19:38:45.599Z,810.39
2017-12-02T19:39:45.603Z,810.36
2017-12-02T19:40:45.607Z,810.38
2017-12-02T19:41:45.611Z,810.36
2017-12-02T19:42:45.620Z,810.37
2017-12-02T19:43:45.623Z,810.33
2017-12-02T19:44:45.619Z,810.41
2017-12-02T19:45:45.629Z,810.37
2017-12-02T19:46:45.630Z,810.36
2017-12-02T19:47:45.639Z,810.41
2017-12-02T19:48:45.631Z,810.43
2017-12-02T19:49:45.645Z,810.43
2017-12-02T19:50:45.635Z,810.46
2017-12-02T19:51:45.638Z,810.44
2017-12-02T19:52:45.640Z,810.46
2017-12-02T19:53:45.648Z,810.49
2017-12-02T19:54:45.653Z,810.43
2017-12-02T19:55:45.649Z,810.43
2017-12-02T19:56:45.652Z,810.47
2017-12-02T19:57:45.656Z,810.40
2017-12-02T19:58:45.661Z,810.46
2017-12-02T19:59:45.661Z,810.45
2017-12-02T20:00:45.665Z,810.42
2017-12-02T20:01:45.669Z,810.50
2017-12-02T20:02:45.670Z,810.47
2017-12-02T20:03:45.672Z,810.47
2017-12-02T20:04:45.676Z,810.49
2017-12-02T20:05:45.683Z,810.47
2017-12-02T20:06:45.689Z,810.51
2017-12-02T20:07:45.685Z,810.43
2017-12-02T20:08:45.686Z,810.48
2017-12-02T20:09:45.704Z,810.49
2017-12-02T20:10:45.693Z,810.49
2017-12-02T20:11:45.695Z,810.52
2017-12-02T20:12:45.697Z,810.47
2017-12-02T20:13:45.701Z,810.46
2017-12-02T20:14:45.713Z,810.53
2017-12-02T20:15:45.709Z,810.49
2017-12-02T20:16:45.710Z,810.50
2017-12-02T20:17:45.713Z,810.50
2017-12-02T20:18:45.715Z,810.51
2017-12-02T20:19:45.729Z,810.52
2017-12-02T20:20:45.721Z,810.53
2017-12-02T20:21:45.721Z,810.54
2017-12-02T20:22:45.724Z,810.54
2017-12-02T20:23:45.728Z,810.54
2017-12-02T20:24:45.732Z,810.53
2017-12-02T20:25:45.734Z,810.53
2017-12-02T20:26:45.768Z,810.53
2017-12-02T20:27:45.739Z,810.58
2017-12-02T20:28:45.742Z,810.59
2017-12-02T20:29:45.746Z,810.60
2017-12-02T20:30:45.748Z,810.58
2017-12-02T20:31:45.762Z,810.58
2017-12-02T20:32:45.754Z,810.60
2017-12-02T20:33:46.755Z,810.62
2017-12-02T20:34:45.758Z,810.63
2017-12-02T20:35:45.763Z,810.58
2017-12-02T20:36:45.778Z,810.57
2017-12-02T20:37:45.767Z,810.59
2017-12-02T20:38:45.771Z,810.56
2017-12-02T20:39:45.772Z,810.58
2017-12-02T20:40:45.776Z,810.56
2017-12-02T20:41:45.779Z,810.57
2017-12-02T20:42:45.782Z,810.56
2017-12-02T20:43:45.786Z,810.57
2017-12-02T20:44:45.786Z,810.58
2017-12-02T20:45:45.789Z,810.60
2017-12-02T20:46:45.793Z,810.61
2017-12-02T20:47:45.794Z,810.57
2017-12-02T20:48:45.798Z,810.66
2017-12-02T20:49:47.841Z,810.60
2017-12-02T20:50:49.177Z,810.65
2017-12-02T20:51:45.805Z,810.66
2017-12-02T20:52:45.808Z,810.65
2017-12-02T20:53:45.810Z,810.67
2017-12-02T20:54:45.812Z,810.67
2017-12-02T20:55:45.814Z,810.68
2017-12-02T20:56:45.827Z,810.68
2017-12-02T20:57:45.822Z,810.71
2017-12-02T20:58:45.821Z,810.71
2017-12-02T20:59:45.825Z,810.71
2017-12-02T21:00:45.825Z,810.70
2017-12-02T21:01:45.830Z,810.72
2017-12-02T21:02:45.836Z,810.74
2017-12-02T21:03:45.834Z,810.72
2017-12-02T21:04:45.839Z,810.74
2017-12-02T21:05:45.852Z,810.74
2017-12-02T21:06:45.842Z,810.71
2017-12-02T21:07:45.844Z,810.73
2017-12-02T21:08:45.846Z,810.74
2017-12-02T21:09:45.868Z,810.73
2017-12-02T21:10:45.861Z,810.74
2017-12-02T21:11:45.867Z,810.69
2017-12-02T21:12:45.865Z,810.76
2017-12-02T21:13:45.867Z,810.74
2017-12-02T21:14:45.862Z,810.77
2017-12-02T21:15:45.864Z,810.73
2017-12-02T21:16:45.867Z,810.75
2017-12-02T21:17:45.881Z,810.73
2017-12-02T21:18:45.880Z,810.70
2017-12-02T21:19:45.884Z,810.69
2017-12-02T21:20:45.877Z,810.70
2017-12-02T21:21:45.879Z,810.67
2017-12-02T21:22:45.881Z,810.70
2017-12-02T21:23:45.885Z,810.71
2017-12-02T21:24:45.891Z,810.72
2017-12-02T21:25:45.890Z,810.72
2017-12-02T21:26:45.890Z,810.72
2017-12-02T21:27:46.896Z,810.71
2017-12-02T21:28:45.895Z,810.73
2017-12-02T21:29:45.898Z,810.72
2017-12-02T21:30:45.902Z,810.78
2017-12-02T21:31:45.903Z,810.75
2017-12-02T21:32:45.907Z,810.79
2017-12-02T21:33:45.909Z,810.79
2017-12-02T21:34:45.913Z,810.77
2017-12-02T21:35:45.914Z,810.79
2017-12-02T21:36:45.921Z,810.75
2017-12-02T21:37:45.919Z,810.73
2017-12-02T21:38:45.919Z,810.74
2017-12-02T21:39:45.922Z,810.73
2017-12-02T21:40:45.925Z,810.70
2017-12-02T21:41:45.926Z,810.70
2017-12-02T21:42:45.949Z,810.71
2017-12-02T21:43:45.937Z,810.73
2017-12-02T21:44:45.935Z,810.73
2017-12-02T21:45:45.936Z,810.70
2017-12-02T21:46:45.940Z,810.72
2017-12-02T21:47:45.954Z,810.71
2017-12-02T21:48:45.944Z,810.71
2017-12-02T21:49:45.946Z,810.73
2017-12-02T21:50:45.948Z,810.75
2017-12-02T21:51:45.957Z,810.70
2017-12-02T21:52:45.952Z,810.73
2017-12-02T21:53:45.956Z,810.69
2017-12-02T21:54:45.956Z,810.73
2017-12-02T21:55:45.960Z,810.69
2017-12-02T21:56:45.980Z,810.67
2017-12-02T21:57:46.033Z,810.69
2017-12-02T21:58:45.967Z,810.65
2017-12-02T21:59:45.987Z,810.68
2017-12-02T22:00:45.972Z,810.71
2017-12-02T22:01:45.972Z,810.69
2017-12-02T22:02:45.976Z,810.68
2017-12-02T22:03:45.979Z,810.73
2017-12-02T22:04:45.980Z,810.74
2017-12-02T22:05:45.987Z,810.70
2017-12-02T22:06:45.984Z,810.70
2017-12-02T22:07:45.987Z,810.71
2017-12-02T22:08:45.988Z,810.77
2017-12-02T22:09:45.993Z,810.80
2017-12-02T22:10:45.993Z,810.75
2017-12-02T22:11:45.995Z,810.78
2017-12-02T22:12:45.998Z,810.80
2017-12-02T22:13:46.001Z,810.84
2017-12-02T22:14:46.002Z,810.86
2017-12-02T22:15:46.007Z,810.84
2017-12-02T22:16:46.006Z,810.82
2017-12-02T22:17:46.010Z,810.81
2017-12-02T22:18:46.012Z,810.83
2017-12-02T22:19:46.012Z,810.78
2017-12-02T22:20:46.021Z,810.81
2017-12-02T22:21:46.017Z,810.80
2017-12-02T22:22:46.019Z,810.83
2017-12-02T22:23:46.020Z,810.82
2017-12-02T22:24:46.024Z,810.87
2017-12-02T22:25:46.027Z,810.84
2017-12-02T22:26:46.025Z,810.83
2017-12-02T22:27:46.033Z,810.88
2017-12-02T22:28:46.031Z,810.82
2017-12-02T22:29:46.035Z,810.88
2017-12-02T22:30:46.042Z,810.85
2017-12-02T22:31:46.039Z,810.84
2017-12-02T22:32:46.040Z,810.84
2017-12-02T22:33:46.042Z,810.85
2017-12-02T22:34:46.043Z,810.81
2017-12-02T22:35:46.051Z,810.83
2017-12-02T22:36:46.048Z,810.87
2017-12-02T22:37:46.051Z,810.84
2017-12-02T22:38:46.052Z,810.91
2017-12-02T22:39:46.056Z,810.88
2017-12-02T22:40:46.058Z,810.91
2017-12-02T22:41:46.062Z,810.91
2017-12-02T22:42:46.061Z,810.90
2017-12-02T22:43:46.064Z,810.92
2017-12-02T22:44:46.066Z,810.91
2017-12-02T22:45:46.069Z,810.96
2017-12-02T22:46:46.068Z,810.93
2017-12-02T22:47:46.072Z,810.94
2017-12-02T22:48:46.074Z,810.96
2017-12-02T22:49:46.076Z,810.92
2017-12-02T22:50:46.077Z,810.96
2017-12-02T22:51:46.080Z,810.97
2017-12-02T22:52:46.081Z,810.92
2017-12-02T22:53:46.088Z,810.99
2017-12-02T22:54:46.086Z,810.96
2017-12-02T22:55:46.090Z,810.95
2017-12-02T22:56:46.089Z,810.98
2017-12-02T22:57:46.091Z,810.98
2017-12-02T22:58:46.091Z,810.99
2017-12-02T22:59:46.094Z,810.99
2017-12-02T23:00:46.097Z,810.99
2017-12-02T23:01:46.099Z,810.95
2017-12-02T23:02:46.099Z,810.93
2017-12-02T23:03:46.105Z,810.92
2017-12-02T23:04:46.106Z,810.94
2017-12-02T23:05:46.105Z,810.94
2017-12-02T23:06:46.107Z,810.96
2017-12-02T23:07:46.109Z,810.97
2017-12-02T23:08:46.109Z,810.97
2017-12-02T23:09:46.112Z,810.96
2017-12-02T23:10:46.113Z,811.02
2017-12-02T23:11:46.114Z,811.03
2017-12-02T23:12:46.116Z,810.99
2017-12-02T23:13:46.119Z,810.96
2017-12-02T23:14:46.120Z,810.96
2017-12-02T23:15:46.123Z,811.00
2017-12-02T23:16:46.125Z,810.97
2017-12-02T23:17:46.125Z,810.95
2017-12-02T23:18:46.127Z,810.95
2017-12-02T23:19:46.128Z,810.95
2017-12-02T23:20:46.131Z,811.00
2017-12-02T23:21:46.133Z,810.98
2017-12-02T23:22:46.134Z,810.99
2017-12-02T23:23:46.140Z,811.02
2017-12-02T23:24:46.137Z,811.01
2017-12-02T23:25:46.140Z,811.03
2017-12-02T23:26:46.139Z,811.00
2017-12-02T23:27:46.144Z,811.01
2017-12-02T23:28:46.145Z,811.08
2017-12-02T23:29:46.146Z,811.02
2017-12-02T23:30:46.147Z,811.03
2017-12-02T23:31:46.149Z,810.97
2017-12-02T23:32:46.158Z,811.04
2017-12-02T23:33:46.156Z,810.99
2017-12-02T23:34:46.154Z,811.04
2017-12-02T23:35:46.155Z,811.05
2017-12-02T23:36:46.158Z,811.07
2017-12-02T23:37:46.160Z,811.13
2017-12-02T23:38:46.161Z,811.12
2017-12-02T23:39:46.162Z,811.10
2017-12-02T23:40:46.200Z,811.08
2017-12-02T23:41:46.168Z,811.13
2017-12-02T23:42:46.169Z,811.08
2017-12-02T23:43:46.177Z,811.09
2017-12-02T23:44:46.171Z,811.10
2017-12-02T23:45:46.177Z,811.11
2017-12-02T23:46:46.176Z,811.08
2017-12-02T23:47:46.178Z,811.14
2017-12-02T23:48:46.180Z,811.14
2017-12-02T23:49:46.182Z,811.15
2017-12-02T23:50:46.185Z,811.14
2017-12-02T23:51:46.185Z,811.09
2017-12-02T23:52:46.186Z,811.11
2017-12-02T23:53:46.188Z,811.08
2017-12-02T23:54:46.188Z,811.10
2017-12-02T23:55:46.196Z,811.06
2017-12-02T23:56:46.195Z,811.09
2017-12-02T23:57:46.195Z,811.09
2017-12-02T23:58:46.195Z,811.05
2017-12-02T23:59:46.197Z,811.08
